sensor_id;sensor_type;location;lat;lon;timestamp;pressure;altitude;pressure_sealevel;temperature;humidity
48968;BME280;46511;53.148;8.204;2023-07-20T00:01:44;101366.31;;;16.94;100.00
48968;BME280;46511;53.148;8.204;2023-07-20T00:04:29;101361.94;;;16.93;100.00
48968;BME280;46511;53.148;8.204;2023-07-20T00:07:00;101357.94;;;16.98;100.00
48968;BME280;46511;53.148;8.204;2023-07-20T00:09:32;101364.63;;;16.93;100.00
48968;BME280;46511;53.148;8.204;2023-07-20T00:12:03;101355.38;;;16.97;100.00
48968;BME280;46511;53.148;8.204;2023-07-20T00:14:34;101357.78;;;16.89;100.00
48968;BME280;46511;53.148;8.204;2023-07-20T00:17:06;101356.56;;;16.93;100.00
48968;BME280;46511;53.148;8.204;2023-07-20T00:19:32;101351.06;;;16.94;100.00
48968;BME280;46511;53.148;8.204;2023-07-20T00:22:03;101354.13;;;16.90;100.00
48968;BME280;46511;53.148;8.204;2023-07-20T00:24:35;101351.25;;;17.04;100.00
48968;BME280;46511;53.148;8.204;2023-07-20T00:27:06;101347.88;;;16.89;100.00
48968;BME280;46511;53.148;8.204;2023-07-20T00:29:38;101349.97;;;16.73;100.00
48968;BME280;46511;53.148;8.204;2023-07-20T00:32:09;101356.09;;;16.62;100.00
48968;BME280;46511;53.148;8.204;2023-07-20T00:34:40;101352.78;;;16.71;100.00
48968;BME280;46511;53.148;8.204;2023-07-20T00:37:11;101353.28;;;16.76;100.00
48968;BME280;46511;53.148;8.204;2023-07-20T00:39:38;101347.81;;;16.65;100.00
48968;BME280;46511;53.148;8.204;2023-07-20T00:42:09;101357.41;;;16.69;100.00
48968;BME280;46511;53.148;8.204;2023-07-20T00:44:40;101353.31;;;16.64;100.00
48968;BME280;46511;53.148;8.204;2023-07-20T00:47:12;101360.94;;;16.70;100.00
48968;BME280;46511;53.148;8.204;2023-07-20T00:49:43;101348.16;;;16.73;100.00
48968;BME280;46511;53.148;8.204;2023-07-20T00:52:14;101352.44;;;16.63;100.00
48968;BME280;46511;53.148;8.204;2023-07-20T00:54:46;101361.25;;;16.65;100.00
48968;BME280;46511;53.148;8.204;2023-07-20T00:57:18;101352.63;;;16.49;100.00
48968;BME280;46511;53.148;8.204;2023-07-20T00:59:50;101360.44;;;16.52;100.00
48968;BME280;46511;53.148;8.204;2023-07-20T01:02:21;101359.13;;;16.70;100.00
48968;BME280;46511;53.148;8.204;2023-07-20T01:04:52;101356.09;;;16.62;100.00
48968;BME280;46511;53.148;8.204;2023-07-20T01:07:30;101359.16;;;16.45;100.00
48968;BME280;46511;53.148;8.204;2023-07-20T01:12:41;101368.25;;;16.55;100.00
48968;BME280;46511;53.148;8.204;2023-07-20T01:15:13;101359.78;;;16.48;100.00
48968;BME280;46511;53.148;8.204;2023-07-20T01:17:44;101357.78;;;16.39;100.00
48968;BME280;46511;53.148;8.204;2023-07-20T01:20:19;101365.78;;;16.52;100.00
48968;BME280;46511;53.148;8.204;2023-07-20T01:28:41;101357.00;;;16.50;100.00
48968;BME280;46511;53.148;8.204;2023-07-20T01:31:21;101362.22;;;16.64;100.00
48968;BME280;46511;53.148;8.204;2023-07-20T01:33:56;101358.66;;;16.64;100.00
48968;BME280;46511;53.148;8.204;2023-07-20T01:36:29;101362.13;;;16.53;100.00
48968;BME280;46511;53.148;8.204;2023-07-20T01:39:01;101361.47;;;16.62;100.00
48968;BME280;46511;53.148;8.204;2023-07-20T01:41:28;101357.59;;;16.66;100.00
48968;BME280;46511;53.148;8.204;2023-07-20T01:44:00;101350.22;;;16.70;100.00
48968;BME280;46511;53.148;8.204;2023-07-20T01:46:31;101342.16;;;16.57;100.00
48968;BME280;46511;53.148;8.204;2023-07-20T01:49:03;101349.88;;;16.62;100.00
48968;BME280;46511;53.148;8.204;2023-07-20T01:51:29;101346.84;;;16.66;100.00
48968;BME280;46511;53.148;8.204;2023-07-20T01:54:00;101348.56;;;16.67;100.00
48968;BME280;46511;53.148;8.204;2023-07-20T01:56:31;101343.66;;;16.74;100.00
48968;BME280;46511;53.148;8.204;2023-07-20T01:59:03;101345.81;;;16.69;100.00
48968;BME280;46511;53.148;8.204;2023-07-20T02:01:34;101349.88;;;16.62;100.00
48968;BME280;46511;53.148;8.204;2023-07-20T02:04:05;101356.22;;;16.61;100.00
48968;BME280;46511;53.148;8.204;2023-07-20T02:06:36;101349.38;;;16.69;100.00
48968;BME280;46511;53.148;8.204;2023-07-20T02:09:07;101350.63;;;16.64;100.00
48968;BME280;46511;53.148;8.204;2023-07-20T02:11:39;101347.53;;;16.70;100.00
48968;BME280;46511;53.148;8.204;2023-07-20T02:14:10;101347.66;;;16.68;100.00
48968;BME280;46511;53.148;8.204;2023-07-20T02:16:41;101352.69;;;16.47;100.00
48968;BME280;46511;53.148;8.204;2023-07-20T02:19:14;101357.00;;;16.50;100.00
48968;BME280;46511;53.148;8.204;2023-07-20T02:21:45;101352.38;;;16.52;100.00
48968;BME280;46511;53.148;8.204;2023-07-20T02:24:16;101352.06;;;16.44;100.00
48968;BME280;46511;53.148;8.204;2023-07-20T02:26:47;101346.09;;;16.40;100.00
48968;BME280;46511;53.148;8.204;2023-07-20T02:29:19;101348.66;;;16.42;100.00
48968;BME280;46511;53.148;8.204;2023-07-20T02:31:50;101352.50;;;16.50;100.00
48968;BME280;46511;53.148;8.204;2023-07-20T02:34:21;101351.28;;;16.54;100.00
48968;BME280;46511;53.148;8.204;2023-07-20T02:36:52;101350.19;;;16.57;100.00
48968;BME280;46511;53.148;8.204;2023-07-20T02:39:24;101345.84;;;16.43;100.00
48968;BME280;46511;53.148;8.204;2023-07-20T02:41:55;101346.28;;;16.50;100.00
48968;BME280;46511;53.148;8.204;2023-07-20T02:44:26;101346.53;;;16.34;100.00
48968;BME280;46511;53.148;8.204;2023-07-20T02:46:58;101348.97;;;16.37;100.00
48968;BME280;46511;53.148;8.204;2023-07-20T02:49:29;101341.16;;;16.34;100.00
48968;BME280;46511;53.148;8.204;2023-07-20T02:52:00;101348.41;;;16.45;100.00
48968;BME280;46511;53.148;8.204;2023-07-20T02:54:31;101348.13;;;16.37;100.00
48968;BME280;46511;53.148;8.204;2023-07-20T02:56:57;101352.97;;;16.32;100.00
48968;BME280;46511;53.148;8.204;2023-07-20T02:59:29;101345.25;;;16.27;100.00
48968;BME280;46511;53.148;8.204;2023-07-20T03:02:00;101352.34;;;16.15;100.00
48968;BME280;46511;53.148;8.204;2023-07-20T03:04:32;101355.09;;;16.26;100.00
48968;BME280;46511;53.148;8.204;2023-07-20T03:07:06;101364.31;;;16.35;100.00
48968;BME280;46511;53.148;8.204;2023-07-20T03:09:38;101354.69;;;16.33;100.00
48968;BME280;46511;53.148;8.204;2023-07-20T03:12:10;101361.97;;;16.31;100.00
48968;BME280;46511;53.148;8.204;2023-07-20T03:14:41;101364.56;;;16.07;100.00
48968;BME280;46511;53.148;8.204;2023-07-20T03:17:13;101365.41;;;16.33;100.00
48968;BME280;46511;53.148;8.204;2023-07-20T03:19:44;101370.69;;;16.21;100.00
48968;BME280;46511;53.148;8.204;2023-07-20T03:22:15;101367.53;;;16.27;100.00
48968;BME280;46511;53.148;8.204;2023-07-20T03:24:46;101372.81;;;16.16;100.00
48968;BME280;46511;53.148;8.204;2023-07-20T03:27:18;101373.34;;;16.21;100.00
48968;BME280;46511;53.148;8.204;2023-07-20T03:29:49;101370.97;;;16.17;100.00
48968;BME280;46511;53.148;8.204;2023-07-20T03:32:20;101374.75;;;16.14;100.00
48968;BME280;46511;53.148;8.204;2023-07-20T03:34:52;101375.06;;;15.97;100.00
48968;BME280;46511;53.148;8.204;2023-07-20T03:37:23;101373.47;;;15.94;100.00
48968;BME280;46511;53.148;8.204;2023-07-20T03:39:54;101380.97;;;15.89;100.00
48968;BME280;46511;53.148;8.204;2023-07-20T03:42:21;101377.66;;;15.86;100.00
48968;BME280;46511;53.148;8.204;2023-07-20T03:44:52;101376.78;;;15.85;100.00
48968;BME280;46511;53.148;8.204;2023-07-20T03:47:23;101384.59;;;15.76;100.00
48968;BME280;46511;53.148;8.204;2023-07-20T03:49:55;101385.34;;;15.78;100.00
48968;BME280;46511;53.148;8.204;2023-07-20T03:52:26;101382.34;;;15.69;100.00
48968;BME280;46511;53.148;8.204;2023-07-20T03:54:53;101378.69;;;15.70;100.00
48968;BME280;46511;53.148;8.204;2023-07-20T03:57:24;101382.47;;;15.54;100.00
48968;BME280;46511;53.148;8.204;2023-07-20T03:59:55;101385.00;;;15.69;100.00
48968;BME280;46511;53.148;8.204;2023-07-20T04:02:26;101387.28;;;15.76;100.00
48968;BME280;46511;53.148;8.204;2023-07-20T04:04:58;101388.78;;;15.67;100.00
48968;BME280;46511;53.148;8.204;2023-07-20T04:07:29;101388.13;;;15.76;100.00
48968;BME280;46511;53.148;8.204;2023-07-20T04:10:00;101393.69;;;15.60;100.00
48968;BME280;46511;53.148;8.204;2023-07-20T04:12:31;101393.13;;;15.55;100.00
48968;BME280;46511;53.148;8.204;2023-07-20T04:15:02;101391.28;;;15.56;100.00
48968;BME280;46511;53.148;8.204;2023-07-20T04:17:34;101389.25;;;15.59;100.00
48968;BME280;46511;53.148;8.204;2023-07-20T04:20:01;101393.63;;;15.48;100.00
48968;BME280;46511;53.148;8.204;2023-07-20T04:22:33;101394.06;;;15.54;100.00
48968;BME280;46511;53.148;8.204;2023-07-20T04:25:04;101397.50;;;15.56;100.00
48968;BME280;46511;53.148;8.204;2023-07-20T04:27:35;101397.69;;;15.53;100.00
48968;BME280;46511;53.148;8.204;2023-07-20T04:30:07;101396.66;;;15.56;100.00
48968;BME280;46511;53.148;8.204;2023-07-20T04:32:34;101391.94;;;15.59;100.00
48968;BME280;46511;53.148;8.204;2023-07-20T04:35:00;101403.03;;;15.53;100.00
48968;BME280;46511;53.148;8.204;2023-07-20T04:37:32;101395.34;;;15.49;100.00
48968;BME280;46511;53.148;8.204;2023-07-20T04:40:03;101398.06;;;15.61;100.00
48968;BME280;46511;53.148;8.204;2023-07-20T04:42:35;101404.00;;;15.52;100.00
48968;BME280;46511;53.148;8.204;2023-07-20T04:45:06;101399.94;;;15.74;100.00
48968;BME280;46511;53.148;8.204;2023-07-20T04:47:38;101402.91;;;15.82;100.00
48968;BME280;46511;53.148;8.204;2023-07-20T04:50:09;101395.44;;;15.87;100.00
48968;BME280;46511;53.148;8.204;2023-07-20T04:52:41;101392.97;;;15.96;100.00
48968;BME280;46511;53.148;8.204;2023-07-20T04:55:12;101396.91;;;15.91;100.00
48968;BME280;46511;53.148;8.204;2023-07-20T04:57:43;101408.72;;;16.01;100.00
48968;BME280;46511;53.148;8.204;2023-07-20T05:00:14;101412.59;;;15.97;100.00
48968;BME280;46511;53.148;8.204;2023-07-20T05:02:46;101403.56;;;15.98;100.00
48968;BME280;46511;53.148;8.204;2023-07-20T05:05:13;101403.06;;;16.06;100.00
48968;BME280;46511;53.148;8.204;2023-07-20T05:07:44;101407.34;;;16.08;100.00
48968;BME280;46511;53.148;8.204;2023-07-20T05:10:16;101408.16;;;16.47;100.00
48968;BME280;46511;53.148;8.204;2023-07-20T05:12:47;101409.88;;;16.48;100.00
48968;BME280;46511;53.148;8.204;2023-07-20T05:15:18;101408.47;;;16.55;100.00
48968;BME280;46511;53.148;8.204;2023-07-20T05:17:49;101401.19;;;16.70;100.00
48968;BME280;46511;53.148;8.204;2023-07-20T05:20:21;101401.56;;;16.89;100.00
48968;BME280;46511;53.148;8.204;2023-07-20T05:22:47;101396.69;;;16.70;100.00
48968;BME280;46511;53.148;8.204;2023-07-20T05:25:19;101399.00;;;16.75;100.00
48968;BME280;46511;53.148;8.204;2023-07-20T05:27:53;101401.94;;;16.96;100.00
48968;BME280;46511;53.148;8.204;2023-07-20T05:30:21;101396.13;;;16.78;100.00
48968;BME280;46511;53.148;8.204;2023-07-20T05:32:52;101399.78;;;17.01;100.00
48968;BME280;46511;53.148;8.204;2023-07-20T05:35:25;101399.81;;;17.25;100.00
48968;BME280;46511;53.148;8.204;2023-07-20T05:37:57;101392.66;;;17.12;100.00
48968;BME280;46511;53.148;8.204;2023-07-20T05:40:23;101388.28;;;16.75;100.00
48968;BME280;46511;53.148;8.204;2023-07-20T05:42:49;101389.41;;;17.20;100.00
48968;BME280;46511;53.148;8.204;2023-07-20T05:45:22;101394.94;;;17.30;100.00
48968;BME280;46511;53.148;8.204;2023-07-20T05:47:54;101384.78;;;17.92;100.00
48968;BME280;46511;53.148;8.204;2023-07-20T05:50:25;101392.63;;;18.18;100.00
48968;BME280;46511;53.148;8.204;2023-07-20T05:52:56;101394.81;;;17.55;100.00
48968;BME280;46511;53.148;8.204;2023-07-20T05:55:28;101398.50;;;18.01;100.00
48968;BME280;46511;53.148;8.204;2023-07-20T05:57:59;101393.59;;;18.28;100.00
48968;BME280;46511;53.148;8.204;2023-07-20T06:00:30;101395.94;;;18.55;100.00
48968;BME280;46511;53.148;8.204;2023-07-20T06:03:01;101393.38;;;18.53;100.00
48968;BME280;46511;53.148;8.204;2023-07-20T06:05:33;101399.63;;;18.65;100.00
48968;BME280;46511;53.148;8.204;2023-07-20T06:08:04;101391.56;;;18.76;100.00
48968;BME280;46511;53.148;8.204;2023-07-20T06:10:36;101392.16;;;18.58;100.00
48968;BME280;46511;53.148;8.204;2023-07-20T06:13:07;101393.94;;;19.02;100.00
48968;BME280;46511;53.148;8.204;2023-07-20T06:15:38;101391.22;;;19.45;100.00
48968;BME280;46511;53.148;8.204;2023-07-20T06:18:10;101398.41;;;19.56;100.00
48968;BME280;46511;53.148;8.204;2023-07-20T06:20:41;101392.03;;;20.19;100.00
48968;BME280;46511;53.148;8.204;2023-07-20T06:23:12;101387.94;;;20.56;100.00
48968;BME280;46511;53.148;8.204;2023-07-20T06:25:44;101388.56;;;20.69;100.00
48968;BME280;46511;53.148;8.204;2023-07-20T06:28:15;101384.47;;;20.44;100.00
48968;BME280;46511;53.148;8.204;2023-07-20T06:30:46;101386.00;;;20.67;100.00
48968;BME280;46511;53.148;8.204;2023-07-20T06:33:17;101382.13;;;21.58;100.00
48968;BME280;46511;53.148;8.204;2023-07-20T06:35:49;101371.34;;;24.12;100.00
48968;BME280;46511;53.148;8.204;2023-07-20T06:38:20;101370.06;;;26.70;100.00
48968;BME280;46511;53.148;8.204;2023-07-20T06:40:51;101367.91;;;27.66;94.54
48968;BME280;46511;53.148;8.204;2023-07-20T06:43:23;101365.50;;;26.94;95.91
48968;BME280;46511;53.148;8.204;2023-07-20T06:45:54;101363.25;;;27.89;83.60
48968;BME280;46511;53.148;8.204;2023-07-20T06:48:25;101366.81;;;26.75;87.62
48968;BME280;46511;53.148;8.204;2023-07-20T06:50:56;101365.59;;;26.38;94.27
48968;BME280;46511;53.148;8.204;2023-07-20T06:53:23;101366.72;;;26.91;90.94
48968;BME280;46511;53.148;8.204;2023-07-20T06:55:54;101361.84;;;27.93;85.16
48968;BME280;46511;53.148;8.204;2023-07-20T06:58:27;101358.03;;;31.07;70.31
48968;BME280;46511;53.148;8.204;2023-07-20T07:00:59;101350.94;;;31.32;61.28
48968;BME280;46511;53.148;8.204;2023-07-20T07:03:30;101367.41;;;31.98;63.25
48968;BME280;46511;53.148;8.204;2023-07-20T07:06:01;101364.97;;;30.48;59.69
48968;BME280;46511;53.148;8.204;2023-07-20T07:08:32;101360.22;;;31.44;53.78
48968;BME280;46511;53.148;8.204;2023-07-20T07:11:04;101362.09;;;33.26;48.66
48968;BME280;46511;53.148;8.204;2023-07-20T07:13:36;101362.69;;;33.28;50.21
48968;BME280;46511;53.148;8.204;2023-07-20T07:16:07;101364.47;;;31.80;49.75
48968;BME280;46511;53.148;8.204;2023-07-20T07:18:38;101372.31;;;28.19;64.94
48968;BME280;46511;53.148;8.204;2023-07-20T07:21:11;101381.00;;;25.99;86.38
48968;BME280;46511;53.148;8.204;2023-07-20T07:23:43;101374.38;;;27.65;76.78
48968;BME280;46511;53.148;8.204;2023-07-20T07:26:14;101379.66;;;28.78;73.22
48968;BME280;46511;53.148;8.204;2023-07-20T07:28:46;101377.94;;;32.21;50.69
48968;BME280;46511;53.148;8.204;2023-07-20T07:31:17;101371.44;;;32.74;43.62
48968;BME280;46511;53.148;8.204;2023-07-20T07:33:48;101365.16;;;30.88;46.57
48968;BME280;46511;53.148;8.204;2023-07-20T07:36:19;101376.13;;;27.20;67.33
48968;BME280;46511;53.148;8.204;2023-07-20T07:38:51;101379.09;;;28.08;66.55
48968;BME280;46511;53.148;8.204;2023-07-20T07:41:22;101381.97;;;26.69;73.83
48968;BME280;46511;53.148;8.204;2023-07-20T07:43:53;101381.81;;;27.33;80.88
48968;BME280;46511;53.148;8.204;2023-07-20T07:46:25;101378.34;;;29.67;56.63
48968;BME280;46511;53.148;8.204;2023-07-20T07:48:56;101377.59;;;28.65;52.59
48968;BME280;46511;53.148;8.204;2023-07-20T07:51:27;101380.84;;;26.95;77.46
48968;BME280;46511;53.148;8.204;2023-07-20T07:53:59;101389.00;;;28.83;63.28
48968;BME280;46511;53.148;8.204;2023-07-20T07:56:30;101380.78;;;32.66;50.49
48968;BME280;46511;53.148;8.204;2023-07-20T07:59:01;101383.63;;;29.97;50.11
48968;BME280;46511;53.148;8.204;2023-07-20T08:01:33;101379.41;;;32.95;45.03
48968;BME280;46511;53.148;8.204;2023-07-20T08:04:05;101379.69;;;34.25;37.50
48968;BME280;46511;53.148;8.204;2023-07-20T08:06:36;101384.00;;;32.56;37.72
48968;BME280;46511;53.148;8.204;2023-07-20T08:09:08;101383.84;;;33.91;36.02
48968;BME280;46511;53.148;8.204;2023-07-20T08:11:39;101376.13;;;36.56;32.73
48968;BME280;46511;53.148;8.204;2023-07-20T08:14:10;101379.34;;;36.65;30.92
48968;BME280;46511;53.148;8.204;2023-07-20T08:16:41;101385.25;;;33.75;34.02
48968;BME280;46511;53.148;8.204;2023-07-20T08:19:14;101383.03;;;31.38;37.70
48968;BME280;46511;53.148;8.204;2023-07-20T08:21:45;101389.38;;;28.65;48.70
48968;BME280;46511;53.148;8.204;2023-07-20T08:24:17;101394.31;;;30.95;48.77
48968;BME280;46511;53.148;8.204;2023-07-20T08:26:48;101388.94;;;32.41;36.31
48968;BME280;46511;53.148;8.204;2023-07-20T08:29:19;101387.41;;;32.52;34.00
48968;BME280;46511;53.148;8.204;2023-07-20T08:31:50;101379.66;;;32.87;36.51
48968;BME280;46511;53.148;8.204;2023-07-20T08:34:22;101371.66;;;34.78;35.47
48968;BME280;46511;53.148;8.204;2023-07-20T08:36:53;101372.31;;;37.93;30.15
48968;BME280;46511;53.148;8.204;2023-07-20T08:39:24;101374.47;;;34.72;34.46
48968;BME280;46511;53.148;8.204;2023-07-20T08:41:56;101380.47;;;32.94;37.45
48968;BME280;46511;53.148;8.204;2023-07-20T08:44:28;101384.28;;;32.22;38.80
48968;BME280;46511;53.148;8.204;2023-07-20T08:46:59;101388.16;;;34.05;34.50
48968;BME280;46511;53.148;8.204;2023-07-20T08:49:31;101390.94;;;32.65;37.01
48968;BME280;46511;53.148;8.204;2023-07-20T08:52:03;101394.75;;;34.04;38.31
48968;BME280;46511;53.148;8.204;2023-07-20T08:54:35;101398.44;;;32.96;36.92
48968;BME280;46511;53.148;8.204;2023-07-20T08:57:09;101394.06;;;30.42;40.31
48968;BME280;46511;53.148;8.204;2023-07-20T08:59:43;101390.19;;;30.30;40.11
48968;BME280;46511;53.148;8.204;2023-07-20T09:02:16;101396.47;;;27.78;51.51
48968;BME280;46511;53.148;8.204;2023-07-20T09:04:48;101393.91;;;27.53;60.36
48968;BME280;46511;53.148;8.204;2023-07-20T09:07:20;101395.50;;;26.63;65.36
48968;BME280;46511;53.148;8.204;2023-07-20T09:09:51;101407.38;;;25.41;75.26
48968;BME280;46511;53.148;8.204;2023-07-20T09:12:22;101422.84;;;23.78;95.24
48968;BME280;46511;53.148;8.204;2023-07-20T09:14:53;101433.09;;;21.63;100.00
48968;BME280;46511;53.148;8.204;2023-07-20T09:17:28;101439.13;;;20.15;100.00
48968;BME280;46511;53.148;8.204;2023-07-20T09:20:02;101445.28;;;20.27;100.00
48968;BME280;46511;53.148;8.204;2023-07-20T09:22:36;101450.13;;;19.82;100.00
48968;BME280;46511;53.148;8.204;2023-07-20T09:25:15;101457.63;;;20.71;100.00
48968;BME280;46511;53.148;8.204;2023-07-20T09:27:47;101436.78;;;23.30;100.00
48968;BME280;46511;53.148;8.204;2023-07-20T09:30:18;101428.44;;;25.55;100.00
48968;BME280;46511;53.148;8.204;2023-07-20T09:32:50;101424.84;;;29.89;94.87
48968;BME280;46511;53.148;8.204;2023-07-20T09:35:24;101412.22;;;32.12;57.61
48968;BME280;46511;53.148;8.204;2023-07-20T09:37:59;101421.84;;;29.83;66.42
48968;BME280;46511;53.148;8.204;2023-07-20T09:40:37;101414.44;;;28.84;75.89
48968;BME280;46511;53.148;8.204;2023-07-20T09:43:09;101415.44;;;26.94;88.05
48968;BME280;46511;53.148;8.204;2023-07-20T09:48:07;101424.53;;;25.58;92.49
48968;BME280;46511;53.148;8.204;2023-07-20T09:50:40;101411.06;;;27.16;85.05
48968;BME280;46511;53.148;8.204;2023-07-20T09:53:12;101413.28;;;26.82;87.69
48968;BME280;46511;53.148;8.204;2023-07-20T09:55:45;101410.84;;;26.56;89.88
48968;BME280;46511;53.148;8.204;2023-07-20T09:58:17;101420.94;;;26.39;88.29
48968;BME280;46511;53.148;8.204;2023-07-20T10:00:48;101416.91;;;25.70;93.87
48968;BME280;46511;53.148;8.204;2023-07-20T10:03:22;101418.59;;;25.62;94.87
48968;BME280;46511;53.148;8.204;2023-07-20T10:05:57;101401.34;;;28.94;73.98
48968;BME280;46511;53.148;8.204;2023-07-20T10:08:29;101401.59;;;32.49;55.71
48968;BME280;46511;53.148;8.204;2023-07-20T10:11:01;101401.66;;;36.00;42.82
48968;BME280;46511;53.148;8.204;2023-07-20T10:13:33;101404.66;;;37.88;32.56
48968;BME280;46511;53.148;8.204;2023-07-20T10:16:11;101399.19;;;39.46;30.57
48968;BME280;46511;53.148;8.204;2023-07-20T10:18:59;101381.63;;;37.37;31.36
48968;BME280;46511;53.148;8.204;2023-07-20T10:21:33;101388.63;;;39.48;29.69
48968;BME280;46511;53.148;8.204;2023-07-20T10:24:06;101393.28;;;38.06;30.90
48968;BME280;46511;53.148;8.204;2023-07-20T10:26:38;101394.25;;;37.04;29.83
48968;BME280;46511;53.148;8.204;2023-07-20T10:29:09;101380.75;;;39.67;27.08
48968;BME280;46511;53.148;8.204;2023-07-20T10:31:41;101393.25;;;36.42;33.83
48968;BME280;46511;53.148;8.204;2023-07-20T10:34:12;101390.13;;;37.18;29.22
48968;BME280;46511;53.148;8.204;2023-07-20T10:36:44;101374.97;;;37.09;31.44
48968;BME280;46511;53.148;8.204;2023-07-20T10:39:27;101380.91;;;33.36;33.63
48968;BME280;46511;53.148;8.204;2023-07-20T10:42:09;101393.56;;;32.40;33.28
48968;BME280;46511;53.148;8.204;2023-07-20T10:44:40;101384.06;;;35.17;29.19
48968;BME280;46511;53.148;8.204;2023-07-20T10:47:12;101380.75;;;36.16;28.07
48968;BME280;46511;53.148;8.204;2023-07-20T10:49:59;101388.16;;;34.05;31.06
48968;BME280;46511;53.148;8.204;2023-07-20T10:52:36;101384.53;;;36.61;29.41
48968;BME280;46511;53.148;8.204;2023-07-20T10:55:14;101380.81;;;40.09;24.98
48968;BME280;46511;53.148;8.204;2023-07-20T10:58:00;101379.19;;;36.08;29.01
48968;BME280;46511;53.148;8.204;2023-07-20T11:00:37;101385.34;;;32.99;32.88
48968;BME280;46511;53.148;8.204;2023-07-20T11:03:09;101382.97;;;34.33;31.92
48968;BME280;46511;53.148;8.204;2023-07-20T11:05:40;101379.72;;;37.26;29.01
48968;BME280;46511;53.148;8.204;2023-07-20T11:08:13;101373.91;;;37.72;26.78
48968;BME280;46511;53.148;8.204;2023-07-20T11:11:23;101360.97;;;39.31;26.66
48968;BME280;46511;53.148;8.204;2023-07-20T11:13:56;101368.94;;;40.29;22.59
48968;BME280;46511;53.148;8.204;2023-07-20T11:16:43;101365.75;;;39.36;25.19
48968;BME280;46511;53.148;8.204;2023-07-20T11:19:24;101367.88;;;36.85;26.28
48968;BME280;46511;53.148;8.204;2023-07-20T11:21:57;101373.50;;;34.48;27.87
48968;BME280;46511;53.148;8.204;2023-07-20T11:24:29;101379.16;;;36.31;25.85
48968;BME280;46511;53.148;8.204;2023-07-20T11:27:00;101371.84;;;37.51;25.61
48968;BME280;46511;53.148;8.204;2023-07-20T11:29:32;101387.78;;;33.13;29.38
48968;BME280;46511;53.148;8.204;2023-07-20T11:32:03;101397.41;;;31.53;34.79
48968;BME280;46511;53.148;8.204;2023-07-20T11:34:35;101397.75;;;32.56;37.24
48968;BME280;46511;53.148;8.204;2023-07-20T11:37:06;101391.91;;;31.53;38.65
48968;BME280;46511;53.148;8.204;2023-07-20T11:39:37;101396.41;;;29.47;45.33
48968;BME280;46511;53.148;8.204;2023-07-20T11:42:09;101395.56;;;28.00;52.95
48968;BME280;46511;53.148;8.204;2023-07-20T11:44:42;101395.41;;;26.79;67.87
48968;BME280;46511;53.148;8.204;2023-07-20T11:47:13;101388.56;;;26.36;69.39
48968;BME280;46511;53.148;8.204;2023-07-20T11:49:45;101396.31;;;25.67;80.28
48968;BME280;46511;53.148;8.204;2023-07-20T11:52:20;101388.53;;;25.72;72.66
48968;BME280;46511;53.148;8.204;2023-07-20T11:54:46;101401.19;;;25.06;86.87
48968;BME280;46511;53.148;8.204;2023-07-20T11:57:22;101407.06;;;24.94;84.46
48968;BME280;46511;53.148;8.204;2023-07-20T11:59:54;101406.09;;;24.61;86.51
48968;BME280;46511;53.148;8.204;2023-07-20T12:02:28;101415.03;;;26.03;84.43
48968;BME280;46511;53.148;8.204;2023-07-20T12:04:59;101409.31;;;29.96;52.45
48968;BME280;46511;53.148;8.204;2023-07-20T12:07:32;101399.63;;;33.14;41.24
48968;BME280;46511;53.148;8.204;2023-07-20T12:10:09;101382.31;;;35.88;30.55
48968;BME280;46511;53.148;8.204;2023-07-20T12:12:42;101385.28;;;36.97;30.15
48968;BME280;46511;53.148;8.204;2023-07-20T12:15:17;101397.66;;;34.52;30.21
48968;BME280;46511;53.148;8.204;2023-07-20T12:17:52;101391.03;;;36.55;29.72
48968;BME280;46511;53.148;8.204;2023-07-20T12:20:24;101387.94;;;34.50;31.52
48968;BME280;46511;53.148;8.204;2023-07-20T12:22:58;101382.38;;;35.70;30.90
48968;BME280;46511;53.148;8.204;2023-07-20T12:25:47;101387.84;;;36.75;28.37
48968;BME280;46511;53.148;8.204;2023-07-20T12:28:19;101385.88;;;35.77;28.92
48968;BME280;46511;53.148;8.204;2023-07-20T12:30:50;101385.09;;;38.16;27.38
48968;BME280;46511;53.148;8.204;2023-07-20T12:33:27;101389.34;;;38.02;25.55
48968;BME280;46511;53.148;8.204;2023-07-20T12:35:59;101386.50;;;37.97;25.60
48968;BME280;46511;53.148;8.204;2023-07-20T12:38:31;101378.66;;;38.71;24.88
48968;BME280;46511;53.148;8.204;2023-07-20T12:41:02;101371.19;;;35.41;26.62
48968;BME280;46511;53.148;8.204;2023-07-20T12:43:34;101371.75;;;35.97;28.31
48968;BME280;46511;53.148;8.204;2023-07-20T12:46:05;101361.34;;;35.81;27.52
48968;BME280;46511;53.148;8.204;2023-07-20T12:48:36;101370.41;;;37.99;28.02
48968;BME280;46511;53.148;8.204;2023-07-20T12:51:09;101370.09;;;33.59;33.46
48968;BME280;46511;53.148;8.204;2023-07-20T12:53:38;101367.78;;;32.22;36.08
48968;BME280;46511;53.148;8.204;2023-07-20T12:56:10;101370.72;;;32.98;33.04
48968;BME280;46511;53.148;8.204;2023-07-20T12:58:41;101360.09;;;33.08;31.33
48968;BME280;46511;53.148;8.204;2023-07-20T13:01:12;101365.41;;;35.01;28.83
48968;BME280;46511;53.148;8.204;2023-07-20T13:03:43;101358.50;;;32.16;33.38
48968;BME280;46511;53.148;8.204;2023-07-20T13:06:14;101363.41;;;30.67;37.15
48968;BME280;46511;53.148;8.204;2023-07-20T13:08:46;101365.72;;;33.20;32.66
48968;BME280;46511;53.148;8.204;2023-07-20T13:11:17;101368.75;;;33.68;31.81
48968;BME280;46511;53.148;8.204;2023-07-20T13:13:48;101360.28;;;35.46;31.94
48968;BME280;46511;53.148;8.204;2023-07-20T13:16:20;101358.16;;;35.95;28.30
48968;BME280;46511;53.148;8.204;2023-07-20T13:18:51;101368.06;;;31.87;35.13
48968;BME280;46511;53.148;8.204;2023-07-20T13:21:23;101362.66;;;30.93;39.32